sensor_id;sensor_type;location;lat;lon;timestamp;P1;durP1;ratioP1;P2;durP2;ratioP2
609;SDS011;292;48.800;9.216;2023-05-07T00:02:25;8.97;;;5.27;;
609;SDS011;292;48.800;9.216;2023-05-07T00:04:53;7.53;;;4.53;;
609;SDS011;292;48.800;9.216;2023-05-07T00:07:20;8.40;;;4.63;;
609;SDS011;292;48.800;9.216;2023-05-07T00:09:50;9.37;;;5.40;;
609;SDS011;292;48.800;9.216;2023-05-07T00:12:18;10.57;;;5.70;;
609;SDS011;292;48.800;9.216;2023-05-07T00:14:47;6.00;;;4.20;;
609;SDS011;292;48.800;9.216;2023-05-07T00:17:14;8.07;;;4.70;;
609;SDS011;292;48.800;9.216;2023-05-07T00:19:41;7.27;;;4.13;;
609;SDS011;292;48.800;9.216;2023-05-07T00:22:08;12.47;;;4.40;;
609;SDS011;292;48.800;9.216;2023-05-07T00:24:35;8.80;;;4.70;;
609;SDS011;292;48.800;9.216;2023-05-07T00:27:06;8.30;;;4.43;;
609;SDS011;292;48.800;9.216;2023-05-07T00:29:33;10.40;;;5.47;;
609;SDS011;292;48.800;9.216;2023-05-07T00:32:04;9.50;;;4.50;;
609;SDS011;292;48.800;9.216;2023-05-07T00:34:31;10.23;;;5.03;;
609;SDS011;292;48.800;9.216;2023-05-07T00:36:59;9.13;;;4.40;;
609;SDS011;292;48.800;9.216;2023-05-07T00:39:29;7.40;;;4.13;;
609;SDS011;292;48.800;9.216;2023-05-07T00:41:58;8.90;;;5.03;;
609;SDS011;292;48.800;9.216;2023-05-07T00:44:31;9.47;;;4.63;;
609;SDS011;292;48.800;9.216;2023-05-07T00:46:59;8.60;;;5.00;;
609;SDS011;292;48.800;9.216;2023-05-07T00:49:32;10.67;;;4.57;;
609;SDS011;292;48.800;9.216;2023-05-07T00:52:05;14.13;;;4.63;;
609;SDS011;292;48.800;9.216;2023-05-07T00:54:33;8.60;;;4.30;;
609;SDS011;292;48.800;9.216;2023-05-07T00:57:01;8.10;;;4.70;;
609;SDS011;292;48.800;9.216;2023-05-07T00:59:29;11.00;;;4.80;;
609;SDS011;292;48.800;9.216;2023-05-07T01:01:58;7.80;;;5.03;;
609;SDS011;292;48.800;9.216;2023-05-07T01:04:27;6.23;;;4.20;;
609;SDS011;292;48.800;9.216;2023-05-07T01:06:59;7.33;;;4.57;;
609;SDS011;292;48.800;9.216;2023-05-07T01:09:31;10.07;;;4.40;;
609;SDS011;292;48.800;9.216;2023-05-07T01:12:00;7.40;;;4.23;;
609;SDS011;292;48.800;9.216;2023-05-07T01:14:28;9.07;;;4.50;;
609;SDS011;292;48.800;9.216;2023-05-07T01:16:57;7.77;;;4.43;;
609;SDS011;292;48.800;9.216;2023-05-07T01:19:25;11.00;;;4.37;;
609;SDS011;292;48.800;9.216;2023-05-07T01:21:52;8.30;;;4.13;;
609;SDS011;292;48.800;9.216;2023-05-07T01:24:29;7.77;;;4.70;;
609;SDS011;292;48.800;9.216;2023-05-07T01:26:57;5.60;;;3.60;;
609;SDS011;292;48.800;9.216;2023-05-07T01:29:24;11.13;;;4.50;;
609;SDS011;292;48.800;9.216;2023-05-07T01:31:51;7.93;;;4.40;;
609;SDS011;292;48.800;9.216;2023-05-07T01:34:20;9.27;;;4.70;;
609;SDS011;292;48.800;9.216;2023-05-07T01:36:49;7.50;;;4.10;;
609;SDS011;292;48.800;9.216;2023-05-07T01:39:18;12.00;;;4.73;;
609;SDS011;292;48.800;9.216;2023-05-07T01:41:48;7.37;;;4.57;;
609;SDS011;292;48.800;9.216;2023-05-07T01:44:16;6.67;;;4.20;;
609;SDS011;292;48.800;9.216;2023-05-07T01:46:44;6.23;;;4.13;;
609;SDS011;292;48.800;9.216;2023-05-07T01:49:12;8.43;;;5.20;;
609;SDS011;292;48.800;9.216;2023-05-07T01:51:40;7.00;;;4.57;;
609;SDS011;292;48.800;9.216;2023-05-07T01:54:09;10.00;;;3.97;;
609;SDS011;292;48.800;9.216;2023-05-07T01:56:37;7.07;;;3.53;;
609;SDS011;292;48.800;9.216;2023-05-07T01:59:06;7.07;;;4.13;;
609;SDS011;292;48.800;9.216;2023-05-07T02:01:33;10.20;;;3.93;;
609;SDS011;292;48.800;9.216;2023-05-07T02:04:01;5.67;;;3.23;;
609;SDS011;292;48.800;9.216;2023-05-07T02:06:28;9.60;;;4.10;;
609;SDS011;292;48.800;9.216;2023-05-07T02:08:55;6.63;;;3.60;;
609;SDS011;292;48.800;9.216;2023-05-07T02:11:23;5.90;;;4.17;;
609;SDS011;292;48.800;9.216;2023-05-07T02:13:50;8.20;;;4.30;;
609;SDS011;292;48.800;9.216;2023-05-07T02:16:19;8.70;;;4.50;;
609;SDS011;292;48.800;9.216;2023-05-07T02:18:47;11.13;;;4.53;;
609;SDS011;292;48.800;9.216;2023-05-07T02:21:14;8.03;;;5.10;;
609;SDS011;292;48.800;9.216;2023-05-07T02:23:41;6.37;;;4.03;;
609;SDS011;292;48.800;9.216;2023-05-07T02:26:12;8.10;;;4.80;;
609;SDS011;292;48.800;9.216;2023-05-07T02:28:41;7.00;;;4.37;;
609;SDS011;292;48.800;9.216;2023-05-07T02:31:08;10.93;;;4.53;;
609;SDS011;292;48.800;9.216;2023-05-07T02:33:37;13.07;;;4.30;;
609;SDS011;292;48.800;9.216;2023-05-07T02:36:05;8.27;;;4.50;;
609;SDS011;292;48.800;9.216;2023-05-07T02:38:34;7.93;;;4.07;;
609;SDS011;292;48.800;9.216;2023-05-07T02:41:01;6.50;;;4.10;;
609;SDS011;292;48.800;9.216;2023-05-07T02:43:29;9.40;;;4.60;;
609;SDS011;292;48.800;9.216;2023-05-07T02:46:02;8.00;;;5.10;;
609;SDS011;292;48.800;9.216;2023-05-07T02:48:30;8.93;;;4.13;;
609;SDS011;292;48.800;9.216;2023-05-07T02:51:02;12.37;;;4.30;;
609;SDS011;292;48.800;9.216;2023-05-07T02:53:30;10.83;;;4.50;;
609;SDS011;292;48.800;9.216;2023-05-07T02:55:58;6.63;;;4.17;;
609;SDS011;292;48.800;9.216;2023-05-07T02:58:27;4.57;;;3.13;;
609;SDS011;292;48.800;9.216;2023-05-07T03:00:54;7.40;;;4.50;;
609;SDS011;292;48.800;9.216;2023-05-07T03:03:21;7.67;;;4.43;;
609;SDS011;292;48.800;9.216;2023-05-07T03:05:49;7.03;;;3.90;;
609;SDS011;292;48.800;9.216;2023-05-07T03:08:19;7.20;;;4.07;;
609;SDS011;292;48.800;9.216;2023-05-07T03:10:46;12.43;;;4.50;;
609;SDS011;292;48.800;9.216;2023-05-07T03:13:13;7.33;;;4.20;;
609;SDS011;292;48.800;9.216;2023-05-07T03:15:42;7.20;;;3.90;;
609;SDS011;292;48.800;9.216;2023-05-07T03:18:09;7.07;;;4.10;;
609;SDS011;292;48.800;9.216;2023-05-07T03:20:37;10.73;;;3.87;;
609;SDS011;292;48.800;9.216;2023-05-07T03:23:05;6.37;;;4.10;;
609;SDS011;292;48.800;9.216;2023-05-07T03:25:34;7.03;;;4.03;;
609;SDS011;292;48.800;9.216;2023-05-07T03:28:01;17.40;;;4.30;;
609;SDS011;292;48.800;9.216;2023-05-07T03:30:28;12.40;;;5.47;;
609;SDS011;292;48.800;9.216;2023-05-07T03:32:55;7.60;;;4.87;;
609;SDS011;292;48.800;9.216;2023-05-07T03:35:24;9.37;;;4.50;;
609;SDS011;292;48.800;9.216;2023-05-07T03:37:51;9.20;;;4.53;;
609;SDS011;292;48.800;9.216;2023-05-07T03:40:19;7.90;;;4.40;;
609;SDS011;292;48.800;9.216;2023-05-07T03:42:49;10.50;;;4.70;;
609;SDS011;292;48.800;9.216;2023-05-07T03:45:17;18.40;;;4.17;;
609;SDS011;292;48.800;9.216;2023-05-07T03:47:44;8.47;;;4.37;;
609;SDS011;292;48.800;9.216;2023-05-07T03:50:11;8.83;;;4.60;;
609;SDS011;292;48.800;9.216;2023-05-07T03:52:40;13.00;;;3.93;;
609;SDS011;292;48.800;9.216;2023-05-07T03:55:07;6.00;;;3.70;;
609;SDS011;292;48.800;9.216;2023-05-07T03:57:35;7.17;;;4.73;;
609;SDS011;292;48.800;9.216;2023-05-07T04:00:07;10.53;;;4.23;;
609;SDS011;292;48.800;9.216;2023-05-07T04:02:36;6.33;;;3.97;;
609;SDS011;292;48.800;9.216;2023-05-07T04:05:03;7.50;;;3.87;;
609;SDS011;292;48.800;9.216;2023-05-07T04:07:30;6.60;;;3.63;;
609;SDS011;292;48.800;9.216;2023-05-07T04:09:58;12.77;;;4.57;;
609;SDS011;292;48.800;9.216;2023-05-07T04:12:25;6.23;;;4.20;;
609;SDS011;292;48.800;9.216;2023-05-07T04:14:52;8.60;;;4.13;;
609;SDS011;292;48.800;9.216;2023-05-07T04:17:25;6.23;;;3.80;;
609;SDS011;292;48.800;9.216;2023-05-07T04:19:52;6.10;;;3.87;;
609;SDS011;292;48.800;9.216;2023-05-07T04:22:20;7.73;;;4.23;;
609;SDS011;292;48.800;9.216;2023-05-07T04:24:47;8.03;;;4.80;;
609;SDS011;292;48.800;9.216;2023-05-07T04:27:14;9.50;;;4.33;;
609;SDS011;292;48.800;9.216;2023-05-07T04:29:42;6.73;;;4.10;;
609;SDS011;292;48.800;9.216;2023-05-07T04:32:12;8.83;;;3.53;;
609;SDS011;292;48.800;9.216;2023-05-07T04:34:41;12.00;;;4.73;;
609;SDS011;292;48.800;9.216;2023-05-07T04:37:08;8.40;;;4.13;;
609;SDS011;292;48.800;9.216;2023-05-07T04:39:36;5.60;;;3.70;;
609;SDS011;292;48.800;9.216;2023-05-07T04:42:07;7.40;;;3.83;;
609;SDS011;292;48.800;9.216;2023-05-07T04:44:35;6.30;;;4.10;;
609;SDS011;292;48.800;9.216;2023-05-07T04:47:03;8.47;;;4.53;;
609;SDS011;292;48.800;9.216;2023-05-07T04:49:31;7.00;;;3.70;;
609;SDS011;292;48.800;9.216;2023-05-07T04:52:01;5.90;;;3.80;;
609;SDS011;292;48.800;9.216;2023-05-07T04:54:29;9.87;;;4.43;;
609;SDS011;292;48.800;9.216;2023-05-07T04:56:56;5.73;;;3.93;;
609;SDS011;292;48.800;9.216;2023-05-07T04:59:23;11.03;;;4.20;;
609;SDS011;292;48.800;9.216;2023-05-07T05:01:50;5.47;;;3.43;;
609;SDS011;292;48.800;9.216;2023-05-07T05:04:17;14.93;;;4.40;;
609;SDS011;292;48.800;9.216;2023-05-07T05:06:44;6.67;;;3.63;;
609;SDS011;292;48.800;9.216;2023-05-07T05:09:13;8.67;;;4.47;;
609;SDS011;292;48.800;9.216;2023-05-07T05:11:41;8.80;;;4.10;;
609;SDS011;292;48.800;9.216;2023-05-07T05:14:08;7.27;;;3.63;;
609;SDS011;292;48.800;9.216;2023-05-07T05:16:36;7.93;;;3.10;;
609;SDS011;292;48.800;9.216;2023-05-07T05:19:03;7.13;;;3.77;;
609;SDS011;292;48.800;9.216;2023-05-07T05:21:32;10.53;;;4.57;;
609;SDS011;292;48.800;9.216;2023-05-07T05:23:59;6.13;;;3.53;;
609;SDS011;292;48.800;9.216;2023-05-07T05:26:29;5.30;;;3.10;;
609;SDS011;292;48.800;9.216;2023-05-07T05:28:56;6.70;;;4.20;;
609;SDS011;292;48.800;9.216;2023-05-07T05:31:23;7.20;;;3.37;;
609;SDS011;292;48.800;9.216;2023-05-07T05:33:51;15.43;;;4.60;;
609;SDS011;292;48.800;9.216;2023-05-07T05:36:18;7.83;;;3.60;;
609;SDS011;292;48.800;9.216;2023-05-07T05:38:46;5.50;;;3.60;;
609;SDS011;292;48.800;9.216;2023-05-07T05:41:14;12.50;;;4.50;;
609;SDS011;292;48.800;9.216;2023-05-07T05:43:43;6.93;;;3.77;;
609;SDS011;292;48.800;9.216;2023-05-07T05:46:11;6.07;;;4.20;;
609;SDS011;292;48.800;9.216;2023-05-07T05:48:38;8.33;;;4.23;;
609;SDS011;292;48.800;9.216;2023-05-07T05:51:06;10.00;;;5.00;;
609;SDS011;292;48.800;9.216;2023-05-07T05:53:33;8.33;;;4.37;;
609;SDS011;292;48.800;9.216;2023-05-07T05:56:02;8.00;;;3.47;;
609;SDS011;292;48.800;9.216;2023-05-07T05:58:31;5.40;;;3.50;;
609;SDS011;292;48.800;9.216;2023-05-07T06:01:05;5.60;;;3.63;;
609;SDS011;292;48.800;9.216;2023-05-07T06:03:32;8.90;;;4.47;;
609;SDS011;292;48.800;9.216;2023-05-07T06:06:00;16.33;;;5.07;;
609;SDS011;292;48.800;9.216;2023-05-07T06:08:28;7.90;;;4.83;;
609;SDS011;292;48.800;9.216;2023-05-07T06:10:56;8.90;;;4.70;;
609;SDS011;292;48.800;9.216;2023-05-07T06:13:24;10.43;;;4.50;;
609;SDS011;292;48.800;9.216;2023-05-07T06:15:52;9.03;;;4.43;;
609;SDS011;292;48.800;9.216;2023-05-07T06:18:21;6.43;;;4.50;;
609;SDS011;292;48.800;9.216;2023-05-07T06:20:50;5.97;;;4.07;;
609;SDS011;292;48.800;9.216;2023-05-07T06:23:18;6.83;;;4.00;;
609;SDS011;292;48.800;9.216;2023-05-07T06:25:47;6.17;;;4.47;;
609;SDS011;292;48.800;9.216;2023-05-07T06:28:18;7.10;;;4.10;;
609;SDS011;292;48.800;9.216;2023-05-07T06:30:45;7.87;;;4.33;;
609;SDS011;292;48.800;9.216;2023-05-07T06:33:15;21.47;;;4.93;;
609;SDS011;292;48.800;9.216;2023-05-07T06:35:44;10.27;;;4.83;;
609;SDS011;292;48.800;9.216;2023-05-07T06:38:14;5.03;;;3.30;;
609;SDS011;292;48.800;9.216;2023-05-07T06:40:42;7.50;;;4.97;;
609;SDS011;292;48.800;9.216;2023-05-07T06:43:09;9.90;;;5.60;;
609;SDS011;292;48.800;9.216;2023-05-07T06:45:36;9.90;;;6.13;;
609;SDS011;292;48.800;9.216;2023-05-07T06:48:04;8.87;;;4.70;;
609;SDS011;292;48.800;9.216;2023-05-07T06:50:35;13.40;;;4.93;;
609;SDS011;292;48.800;9.216;2023-05-07T06:53:04;8.17;;;5.13;;
609;SDS011;292;48.800;9.216;2023-05-07T06:55:32;14.63;;;5.40;;
609;SDS011;292;48.800;9.216;2023-05-07T06:58:05;7.30;;;4.70;;
609;SDS011;292;48.800;9.216;2023-05-07T07:00:33;8.73;;;5.37;;
609;SDS011;292;48.800;9.216;2023-05-07T07:03:02;10.00;;;5.53;;
609;SDS011;292;48.800;9.216;2023-05-07T07:05:30;8.90;;;4.67;;
609;SDS011;292;48.800;9.216;2023-05-07T07:07:57;7.90;;;4.20;;
609;SDS011;292;48.800;9.216;2023-05-07T07:10:27;6.67;;;4.60;;
609;SDS011;292;48.800;9.216;2023-05-07T07:12:55;12.17;;;5.00;;
609;SDS011;292;48.800;9.216;2023-05-07T07:15:22;7.77;;;4.77;;
609;SDS011;292;48.800;9.216;2023-05-07T07:17:50;7.13;;;4.40;;
609;SDS011;292;48.800;9.216;2023-05-07T07:20:17;7.53;;;4.70;;
609;SDS011;292;48.800;9.216;2023-05-07T07:22:45;9.90;;;4.60;;
609;SDS011;292;48.800;9.216;2023-05-07T07:25:12;8.67;;;4.50;;
609;SDS011;292;48.800;9.216;2023-05-07T07:27:41;9.93;;;4.43;;
609;SDS011;292;48.800;9.216;2023-05-07T07:30:08;7.50;;;4.27;;
609;SDS011;292;48.800;9.216;2023-05-07T07:32:37;7.30;;;4.13;;
609;SDS011;292;48.800;9.216;2023-05-07T07:35:05;8.17;;;3.60;;
609;SDS011;292;48.800;9.216;2023-05-07T07:37:33;7.83;;;4.57;;
609;SDS011;292;48.800;9.216;2023-05-07T07:40:00;6.03;;;3.90;;
609;SDS011;292;48.800;9.216;2023-05-07T07:42:28;5.77;;;3.70;;
609;SDS011;292;48.800;9.216;2023-05-07T07:45:00;4.17;;;3.03;;
609;SDS011;292;48.800;9.216;2023-05-07T07:47:27;5.50;;;3.43;;
609;SDS011;292;48.800;9.216;2023-05-07T07:49:56;6.73;;;3.50;;
609;SDS011;292;48.800;9.216;2023-05-07T07:52:24;6.80;;;3.97;;
609;SDS011;292;48.800;9.216;2023-05-07T07:54:53;5.20;;;3.80;;
609;SDS011;292;48.800;9.216;2023-05-07T07:57:21;5.43;;;3.77;;
609;SDS011;292;48.800;9.216;2023-05-07T07:59:49;6.00;;;3.13;;
609;SDS011;292;48.800;9.216;2023-05-07T08:02:20;7.23;;;4.27;;
609;SDS011;292;48.800;9.216;2023-05-07T08:04:48;6.07;;;4.10;;
609;SDS011;292;48.800;9.216;2023-05-07T08:07:18;5.50;;;3.33;;
609;SDS011;292;48.800;9.216;2023-05-07T08:09:47;5.27;;;3.70;;
609;SDS011;292;48.800;9.216;2023-05-07T08:12:15;5.33;;;3.80;;
609;SDS011;292;48.800;9.216;2023-05-07T08:14:42;5.90;;;3.80;;
609;SDS011;292;48.800;9.216;2023-05-07T08:17:10;11.40;;;4.10;;
609;SDS011;292;48.800;9.216;2023-05-07T08:19:44;12.03;;;3.20;;
609;SDS011;292;48.800;9.216;2023-05-07T08:22:11;5.07;;;3.00;;
609;SDS011;292;48.800;9.216;2023-05-07T08:24:38;7.87;;;3.10;;
609;SDS011;292;48.800;9.216;2023-05-07T08:27:05;3.77;;;2.93;;
609;SDS011;292;48.800;9.216;2023-05-07T08:29:33;3.60;;;2.90;;
609;SDS011;292;48.800;9.216;2023-05-07T08:32:00;5.37;;;2.90;;
609;SDS011;292;48.800;9.216;2023-05-07T08:34:28;8.97;;;3.47;;
609;SDS011;292;48.800;9.216;2023-05-07T08:36:57;5.10;;;3.57;;
609;SDS011;292;48.800;9.216;2023-05-07T08:39:24;9.53;;;3.67;;
609;SDS011;292;48.800;9.216;2023-05-07T08:41:58;9.30;;;3.40;;
609;SDS011;292;48.800;9.216;2023-05-07T08:44:32;11.70;;;3.47;;
609;SDS011;292;48.800;9.216;2023-05-07T08:47:01;4.83;;;2.60;;
609;SDS011;292;48.800;9.216;2023-05-07T08:49:29;5.70;;;3.20;;
609;SDS011;292;48.800;9.216;2023-05-07T08:52:10;4.97;;;2.90;;
609;SDS011;292;48.800;9.216;2023-05-07T08:54:39;6.63;;;3.30;;
609;SDS011;292;48.800;9.216;2023-05-07T08:57:06;7.67;;;2.80;;
609;SDS011;292;48.800;9.216;2023-05-07T08:59:37;4.10;;;2.70;;
609;SDS011;292;48.800;9.216;2023-05-07T09:02:07;5.03;;;2.80;;
609;SDS011;292;48.800;9.216;2023-05-07T09:04:38;7.60;;;2.50;;
609;SDS011;292;48.800;9.216;2023-05-07T09:07:06;5.20;;;2.43;;
609;SDS011;292;48.800;9.216;2023-05-07T09:09:36;6.43;;;2.63;;
609;SDS011;292;48.800;9.216;2023-05-07T09:12:04;5.77;;;2.53;;
609;SDS011;292;48.800;9.216;2023-05-07T09:14:32;4.40;;;3.10;;
609;SDS011;292;48.800;9.216;2023-05-07T09:17:01;5.50;;;2.33;;
609;SDS011;292;48.800;9.216;2023-05-07T09:19:28;4.17;;;2.57;;
609;SDS011;292;48.800;9.216;2023-05-07T09:21:59;5.40;;;2.33;;
609;SDS011;292;48.800;9.216;2023-05-07T09:24:28;4.50;;;2.33;;
609;SDS011;292;48.800;9.216;2023-05-07T09:27:02;4.70;;;2.23;;
609;SDS011;292;48.800;9.216;2023-05-07T09:29:30;6.00;;;2.47;;
609;SDS011;292;48.800;9.216;2023-05-07T09:32:00;3.57;;;2.23;;
609;SDS011;292;48.800;9.216;2023-05-07T09:34:28;3.00;;;2.03;;
609;SDS011;292;48.800;9.216;2023-05-07T09:36:56;14.80;;;4.30;;
609;SDS011;292;48.800;9.216;2023-05-07T09:39:28;3.03;;;2.27;;
609;SDS011;292;48.800;9.216;2023-05-07T09:42:09;3.70;;;2.20;;
609;SDS011;292;48.800;9.216;2023-05-07T09:44:36;4.43;;;2.80;;
609;SDS011;292;48.800;9.216;2023-05-07T09:47:04;7.03;;;3.50;;
609;SDS011;292;48.800;9.216;2023-05-07T09:49:34;10.57;;;2.57;;
609;SDS011;292;48.800;9.216;2023-05-07T09:52:03;4.10;;;2.20;;
609;SDS011;292;48.800;9.216;2023-05-07T09:54:34;7.37;;;2.53;;
609;SDS011;292;48.800;9.216;2023-05-07T09:57:05;2.63;;;2.27;;
609;SDS011;292;48.800;9.216;2023-05-07T09:59:37;2.47;;;2.03;;
609;SDS011;292;48.800;9.216;2023-05-07T10:02:04;4.00;;;2.30;;
609;SDS011;292;48.800;9.216;2023-05-07T10:04:31;3.33;;;2.30;;
609;SDS011;292;48.800;9.216;2023-05-07T10:06:59;6.33;;;2.47;;
609;SDS011;292;48.800;9.216;2023-05-07T10:09:29;4.13;;;2.00;;
609;SDS011;292;48.800;9.216;2023-05-07T10:11:58;2.77;;;2.20;;
609;SDS011;292;48.800;9.216;2023-05-07T10:14:27;2.40;;;1.87;;
609;SDS011;292;48.800;9.216;2023-05-07T10:16:56;2.17;;;2.03;;
609;SDS011;292;48.800;9.216;2023-05-07T10:19:24;4.13;;;2.10;;
609;SDS011;292;48.800;9.216;2023-05-07T10:21:54;3.23;;;1.90;;
609;SDS011;292;48.800;9.216;2023-05-07T10:24:31;3.97;;;2.57;;
609;SDS011;292;48.800;9.216;2023-05-07T10:27:00;5.00;;;2.70;;
609;SDS011;292;48.800;9.216;2023-05-07T10:29:37;2.33;;;2.10;;
609;SDS011;292;48.800;9.216;2023-05-07T10:32:19;4.83;;;2.20;;
609;SDS011;292;48.800;9.216;2023-05-07T10:35:01;4.50;;;2.30;;
609;SDS011;292;48.800;9.216;2023-05-07T10:37:31;4.10;;;2.10;;
609;SDS011;292;48.800;9.216;2023-05-07T10:39:59;4.90;;;2.23;;
609;SDS011;292;48.800;9.216;2023-05-07T10:42:28;3.60;;;1.97;;
609;SDS011;292;48.800;9.216;2023-05-07T10:44:59;3.83;;;1.83;;
609;SDS011;292;48.800;9.216;2023-05-07T10:50:41;5.90;;;2.40;;
609;SDS011;292;48.800;9.216;2023-05-07T10:53:22;3.77;;;2.20;;
609;SDS011;292;48.800;9.216;2023-05-07T10:58:56;4.50;;;2.30;;
609;SDS011;292;48.800;9.216;2023-05-07T11:01:59;4.10;;;2.10;;
609;SDS011;292;48.800;9.216;2023-05-07T11:04:32;4.40;;;2.07;;
609;SDS011;292;48.800;9.216;2023-05-07T11:09:55;4.23;;;2.60;;
609;SDS011;292;48.800;9.216;2023-05-07T11:15:37;4.23;;;1.90;;
609;SDS011;292;48.800;9.216;2023-05-07T11:18:11;2.33;;;1.90;;
609;SDS011;292;48.800;9.216;2023-05-07T11:20:50;6.33;;;3.00;;
609;SDS011;292;48.800;9.216;2023-05-07T11:26:26;4.83;;;2.27;;
609;SDS011;292;48.800;9.216;2023-05-07T11:28:57;4.77;;;2.17;;
609;SDS011;292;48.800;9.216;2023-05-07T11:31:36;4.00;;;2.67;;
609;SDS011;292;48.800;9.216;2023-05-07T11:34:05;4.43;;;3.10;;
609;SDS011;292;48.800;9.216;2023-05-07T11:36:34;4.33;;;2.43;;
609;SDS011;292;48.800;9.216;2023-05-07T11:41:55;4.30;;;2.43;;
609;SDS011;292;48.800;9.216;2023-05-07T11:44:23;6.43;;;3.80;;
609;SDS011;292;48.800;9.216;2023-05-07T11:46:51;10.47;;;4.87;;
609;SDS011;292;48.800;9.216;2023-05-07T11:49:24;8.87;;;3.30;;
609;SDS011;292;48.800;9.216;2023-05-07T11:51:53;3.97;;;2.80;;
609;SDS011;292;48.800;9.216;2023-05-07T11:54:21;2.40;;;2.00;;
609;SDS011;292;48.800;9.216;2023-05-07T11:56:48;2.53;;;1.90;;
609;SDS011;292;48.800;9.216;2023-05-07T11:59:19;5.37;;;2.10;;
609;SDS011;292;48.800;9.216;2023-05-07T12:01:55;2.73;;;1.77;;
609;SDS011;292;48.800;9.216;2023-05-07T12:04:30;3.70;;;2.43;;
609;SDS011;292;48.800;9.216;2023-05-07T12:06:58;3.90;;;2.50;;
609;SDS011;292;48.800;9.216;2023-05-07T12:09:26;4.03;;;2.10;;
609;SDS011;292;48.800;9.216;2023-05-07T12:11:55;4.50;;;2.20;;
609;SDS011;292;48.800;9.216;2023-05-07T12:14:26;8.40;;;2.70;;
609;SDS011;292;48.800;9.216;2023-05-07T12:16:57;14.30;;;4.90;;
609;SDS011;292;48.800;9.216;2023-05-07T12:19:30;20.60;;;7.97;;
609;SDS011;292;48.800;9.216;2023-05-07T12:22:01;15.07;;;5.10;;
609;SDS011;292;48.800;9.216;2023-05-07T12:24:43;4.90;;;3.10;;
609;SDS011;292;48.800;9.216;2023-05-07T12:27:11;9.50;;;2.87;;
609;SDS011;292;48.800;9.216;2023-05-07T12:29:39;6.37;;;2.67;;
609;SDS011;292;48.800;9.216;2023-05-07T12:32:12;4.90;;;2.80;;
609;SDS011;292;48.800;9.216;2023-05-07T12:34:42;9.53;;;4.00;;
609;SDS011;292;48.800;9.216;2023-05-07T12:37:13;9.57;;;4.50;;
609;SDS011;292;48.800;9.216;2023-05-07T12:39:44;13.30;;;4.40;;
609;SDS011;292;48.800;9.216;2023-05-07T12:42:14;14.17;;;4.80;;
609;SDS011;292;48.800;9.216;2023-05-07T12:44:43;8.07;;;4.57;;
609;SDS011;292;48.800;9.216;2023-05-07T12:47:12;8.83;;;3.60;;
609;SDS011;292;48.800;9.216;2023-05-07T12:49:41;5.47;;;3.17;;
609;SDS011;292;48.800;9.216;2023-05-07T12:52:11;17.13;;;4.20;;
609;SDS011;292;48.800;9.216;2023-05-07T12:54:38;8.53;;;2.90;;
609;SDS011;292;48.800;9.216;2023-05-07T12:57:06;8.90;;;3.87;;
609;SDS011;292;48.800;9.216;2023-05-07T12:59:34;7.00;;;3.20;;
609;SDS011;292;48.800;9.216;2023-05-07T13:02:03;10.50;;;2.80;;
609;SDS011;292;48.800;9.216;2023-05-07T13:04:33;5.73;;;1.93;;
609;SDS011;292;48.800;9.216;2023-05-07T13:07:05;4.33;;;2.00;;
609;SDS011;292;48.800;9.216;2023-05-07T13:09:36;4.43;;;1.30;;
609;SDS011;292;48.800;9.216;2023-05-07T13:12:05;5.70;;;1.70;;
609;SDS011;292;48.800;9.216;2023-05-07T13:14:32;2.10;;;1.20;;
609;SDS011;292;48.800;9.216;2023-05-07T13:17:02;8.03;;;2.40;;
609;SDS011;292;48.800;9.216;2023-05-07T13:19:29;6.80;;;3.07;;
609;SDS011;292;48.800;9.216;2023-05-07T13:21:57;7.80;;;2.43;;
609;SDS011;292;48.800;9.216;2023-05-07T13:24:33;9.60;;;2.30;;
609;SDS011;292;48.800;9.216;2023-05-07T13:27:00;4.97;;;2.40;;
609;SDS011;292;48.800;9.216;2023-05-07T13:29:30;8.13;;;2.87;;
609;SDS011;292;48.800;9.216;2023-05-07T13:31:59;7.50;;;2.43;;
609;SDS011;292;48.800;9.216;2023-05-07T13:34:27;8.33;;;3.00;;
609;SDS011;292;48.800;9.216;2023-05-07T13:36:55;11.10;;;2.67;;
609;SDS011;292;48.800;9.216;2023-05-07T13:39:23;7.50;;;2.20;;
609;SDS011;292;48.800;9.216;2023-05-07T13:41:52;6.83;;;1.80;;
609;SDS011;292;48.800;9.216;2023-05-07T13:44:21;31.47;;;11.67;;
609;SDS011;292;48.800;9.216;2023-05-07T13:46:48;101.97;;;36.83;;
609;SDS011;292;48.800;9.216;2023-05-07T13:49:16;59.13;;;21.67;;
609;SDS011;292;48.800;9.216;2023-05-07T13:51:43;28.37;;;11.03;;
609;SDS011;292;48.800;9.216;2023-05-07T13:54:11;13.73;;;6.50;;
609;SDS011;292;48.800;9.216;2023-05-07T13:56:38;25.53;;;9.37;;
609;SDS011;292;48.800;9.216;2023-05-07T13:59:08;26.67;;;8.37;;
609;SDS011;292;48.800;9.216;2023-05-07T14:01:35;23.00;;;9.00;;
609;SDS011;292;48.800;9.216;2023-05-07T14:04:04;14.97;;;7.67;;
609;SDS011;292;48.800;9.216;2023-05-07T14:06:34;16.40;;;8.03;;
609;SDS011;292;48.800;9.216;2023-05-07T14:09:04;25.93;;;11.43;;
609;SDS011;292;48.800;9.216;2023-05-07T14:11:32;7.47;;;3.53;;
609;SDS011;292;48.800;9.216;2023-05-07T14:14:00;15.77;;;3.67;;
609;SDS011;292;48.800;9.216;2023-05-07T14:16:29;13.10;;;4.90;;
609;SDS011;292;48.800;9.216;2023-05-07T14:18:56;9.53;;;3.40;;
609;SDS011;292;48.800;9.216;2023-05-07T14:21:23;9.07;;;3.20;;
609;SDS011;292;48.800;9.216;2023-05-07T14:23:51;6.70;;;2.10;;
609;SDS011;292;48.800;9.216;2023-05-07T14:26:18;6.10;;;2.20;;
609;SDS011;292;48.800;9.216;2023-05-07T14:28:45;4.40;;;2.00;;
609;SDS011;292;48.800;9.216;2023-05-07T14:31:14;5.83;;;2.13;;
609;SDS011;292;48.800;9.216;2023-05-07T14:33:51;4.83;;;2.50;;
609;SDS011;292;48.800;9.216;2023-05-07T14:36:18;5.47;;;2.17;;
609;SDS011;292;48.800;9.216;2023-05-07T14:38:49;3.27;;;2.20;;
609;SDS011;292;48.800;9.216;2023-05-07T14:41:17;4.40;;;2.20;;
609;SDS011;292;48.800;9.216;2023-05-07T14:43:46;4.20;;;2.53;;
609;SDS011;292;48.800;9.216;2023-05-07T14:46:17;4.50;;;2.13;;
609;SDS011;292;48.800;9.216;2023-05-07T14:48:47;6.80;;;2.53;;
609;SDS011;292;48.800;9.216;2023-05-07T14:51:21;4.87;;;2.13;;
609;SDS011;292;48.800;9.216;2023-05-07T14:53:49;3.70;;;1.70;;
609;SDS011;292;48.800;9.216;2023-05-07T14:56:17;10.03;;;2.10;;
609;SDS011;292;48.800;9.216;2023-05-07T14:58:46;5.70;;;2.30;;
609;SDS011;292;48.800;9.216;2023-05-07T15:01:15;3.63;;;1.83;;
609;SDS011;292;48.800;9.216;2023-05-07T15:03:44;6.70;;;2.70;;
609;SDS011;292;48.800;9.216;2023-05-07T15:06:12;8.43;;;3.43;;
609;SDS011;292;48.800;9.216;2023-05-07T15:08:41;12.73;;;4.63;;
609;SDS011;292;48.800;9.216;2023-05-07T15:11:08;17.30;;;4.20;;
609;SDS011;292;48.800;9.216;2023-05-07T15:13:37;10.27;;;3.77;;
609;SDS011;292;48.800;9.216;2023-05-07T15:16:09;5.07;;;2.40;;
609;SDS011;292;48.800;9.216;2023-05-07T15:18:37;7.10;;;4.00;;
609;SDS011;292;48.800;9.216;2023-05-07T15:21:05;10.83;;;5.10;;
609;SDS011;292;48.800;9.216;2023-05-07T15:23:33;12.33;;;3.70;;
609;SDS011;292;48.800;9.216;2023-05-07T15:26:02;5.07;;;3.20;;
609;SDS011;292;48.800;9.216;2023-05-07T15:28:29;4.53;;;2.67;;
609;SDS011;292;48.800;9.216;2023-05-07T15:30:56;6.10;;;3.27;;
609;SDS011;292;48.800;9.216;2023-05-07T15:33:25;4.43;;;2.77;;
609;SDS011;292;48.800;9.216;2023-05-07T15:35:53;15.47;;;6.80;;
609;SDS011;292;48.800;9.216;2023-05-07T15:38:23;7.30;;;3.50;;
609;SDS011;292;48.800;9.216;2023-05-07T15:40:52;4.73;;;2.77;;
609;SDS011;292;48.800;9.216;2023-05-07T15:43:21;4.80;;;2.30;;
609;SDS011;292;48.800;9.216;2023-05-07T15:45:48;6.20;;;2.90;;
609;SDS011;292;48.800;9.216;2023-05-07T15:48:18;4.63;;;2.37;;
609;SDS011;292;48.800;9.216;2023-05-07T15:50:45;9.83;;;3.60;;
609;SDS011;292;48.800;9.216;2023-05-07T15:53:13;5.70;;;3.40;;
609;SDS011;292;48.800;9.216;2023-05-07T15:55:41;10.93;;;4.10;;
609;SDS011;292;48.800;9.216;2023-05-07T15:58:09;6.40;;;3.00;;
609;SDS011;292;48.800;9.216;2023-05-07T16:00:38;7.50;;;4.20;;
609;SDS011;292;48.800;9.216;2023-05-07T16:03:07;14.03;;;5.50;;
609;SDS011;292;48.800;9.216;2023-05-07T16:05:37;13.40;;;5.37;;
609;SDS011;292;48.800;9.216;2023-05-07T16:08:05;8.63;;;4.87;;
609;SDS011;292;48.800;9.216;2023-05-07T16:10:32;7.10;;;3.93;;
609;SDS011;292;48.800;9.216;2023-05-07T16:13:00;7.40;;;3.60;;